Milwaukee, WI

9:12 AM CDT on June 02, 2015 (GMT -0500)
Riverwest | | Change Station
CLOSE
Current Station
Personal Weather Station
Location: Milwaukee, WI
Elevation: 698 ft
Nearby Weather Stations

Elev 698 ft 43.07 °N, 87.90 °W | Updated 12 seconds ago

Clear
Clear
55.5 °F
Feels Like 55.5 °F
N
0.0
Wind Variable Wind from SE
Gusts 0.0 mph

Today
High -- | Low -- °F
--% Chance of Precip.
Yesterday
High -- | Low -- °F
Precip. -- in
5:14 AM 8:24 PM
Full, 100% visible
Pressure 30.24 in
Visibility 10.0 miles
Clouds Few 25000 ft
Dew Point 43 °F
Humidity 62%
Rainfall 0.00 in
Snow Depth Not available.
UV 4 out of 12
Pollen 6.20 out of 12
Air Quality Not available.
Flu Activity Sporadic
METAR KMKE 021352Z 00000KT 10SM FEW250 13/05 A3023 RMK AO2 SLP240 T01330050

More Conditions Fewer Conditions

Pressure 30.24 in
Visibility 10.0 miles
Clouds Few 25000 ft
Dew Point 43 °F
Humidity 62%
Rainfall 0.00 in
Snow Depth Not available.
UV 4 out of 12
Pollen 6.20 out of 12
Air Quality Not available.
Flu Activity Sporadic
METAR KMKE 021352Z 00000KT 10SM FEW250 13/05 A3023 RMK AO2 SLP240 T01330050

More Conditions Fewer Conditions

10-Day Weather Forecast

Almanac

Astronomy

Jun. 02, 2015 Rise Set
Actual Time
Civil Twilight
Nautical Twilight
Astronomical Twilight
Moon
Length of Visible Light
Length of Day
Tomorrow will be .
, % of the Moon is Illuminated

Today's Extremes

State Highs State Lows

Community

WunderPhotos

Upload Photos

1,825,917 photos uploaded!

WunderBlogs® & News

Nearby

Air Quality

  Air Quality AQ Index Pollutant
Not available.

Snow Depth

Station Depth Elevation

Earthquake Activity

City Distance Mag. Time & Date
Minimum magnitude displayed is 2.5.

Coastal Water Temperatures

Place Temperature

Stations

Nearby Weather Stations

Station Location Temp. Windchill Dew Point Humidity Wind Precip. Elev Updated Type